Jay Em, Wyoming
Current Conditions -  °F | °C
As of 10:35 PM on Thursday 30 Oct 2014 (Local Time) from KGUR Reporting Station
Clear Clear  
Wind Chill: 34°   Ceiling: Unl
Heat Index: 39°   Visibility: 10mi
Dew Point: 34°   Wind: 7mph
Humidity: 82%   Direction: 110°ESE
Pressure: 30.42"   Gusts: NA
Location:  42.46°N, 104.37°W
Report Text: KGUR 310435Z AUTO 11006KT 10SM CLR 04/01 A3042 RMK AO2 T00390010
Loading
Personal Weather Stations






























Interactive Weather Map
Tropical Storm Tracking
New forecast layout! Learn more

10-Day Weather Forecast

Advertisements
Track Severe Weather on mobile